createdAt,value
2023-04-26T00:11:34.514Z,87.4
2023-04-26T00:27:17.348Z,89.18
2023-04-26T00:43:00.384Z,90.78
2023-04-26T00:58:43.565Z,92.55
2023-04-26T01:14:26.258Z,93.84
2023-04-26T01:30:09.213Z,95.11
2023-04-26T01:45:51.709Z,96.24
2023-04-26T02:01:34.798Z,97.55
2023-04-26T02:17:17.649Z,98.66
2023-04-26T02:33:00.627Z,99.8
2023-04-26T02:48:43.616Z,100
2023-04-26T03:04:26.361Z,100
2023-04-26T03:20:09.177Z,100
2023-04-26T03:35:51.525Z,100
2023-04-26T03:51:34.217Z,100
2023-04-26T04:07:17.208Z,100
2023-04-26T04:23:00.041Z,100
2023-04-26T04:38:43.059Z,100
2023-04-26T04:54:26.099Z,100
2023-04-26T05:10:08.384Z,100
2023-04-26T05:25:50.678Z,100
2023-04-26T05:41:33.654Z,98.31
2023-04-26T05:57:16.431Z,96.83
2023-04-26T06:12:59.383Z,93.32
2023-04-26T06:28:42.336Z,89.32
2023-04-26T07:31:33.061Z,77.69
2023-04-26T07:47:15.750Z,73.23
2023-04-26T08:03:05.385Z,69.14
2023-04-26T08:18:41.178Z,67.04
2023-04-26T08:34:23.845Z,62.28
2023-04-26T08:50:06.360Z,69.2
2023-04-26T09:05:49.564Z,67.4
2023-04-26T09:21:32.299Z,63.09
2023-04-26T10:08:39.201Z,57.75
2023-04-26T10:24:21.686Z,51.81
2023-04-26T10:40:04.582Z,47.14
2023-04-26T10:55:46.971Z,47.99
2023-04-26T11:11:29.857Z,51.58
2023-04-26T11:27:12.062Z,51.63
2023-04-26T11:27:59.437Z,51.42
2023-04-26T11:43:42.289Z,51.41
2023-04-26T11:59:24.409Z,47.81
2023-04-26T12:15:06.692Z,53.87
2023-04-26T12:30:49.154Z,51.94
2023-04-26T12:46:38.949Z,48.52
2023-04-26T13:02:21.030Z,48.53
2023-04-26T13:17:56.135Z,46.66
2023-04-26T13:49:20.578Z,36.95
2023-04-26T14:05:17.489Z,42.21
2023-04-26T14:20:45.923Z,49.29
2023-04-26T14:36:28.853Z,47.05
2023-04-26T14:52:11.515Z,42.16
2023-04-26T15:07:54.114Z,42.27
2023-04-26T15:23:36.458Z,46.11
2023-04-26T15:39:18.969Z,43.08
2023-04-26T15:55:01.259Z,40.39
2023-04-26T16:10:43.484Z,41.27
2023-04-26T16:26:26.370Z,44.23
2023-04-26T16:42:08.999Z,46.69
2023-04-26T16:57:51.329Z,49.33
2023-04-26T17:13:34.131Z,50.76
2023-04-26T17:29:16.625Z,50.91
2023-04-26T17:44:58.971Z,48.81
2023-04-26T18:00:42.083Z,51.49
2023-04-26T18:16:24.238Z,54
2023-04-26T18:32:07.275Z,56.23
2023-04-26T18:47:49.939Z,58.54
2023-04-26T19:03:32.873Z,60.3
2023-04-26T19:19:14.970Z,62.59
2023-04-26T19:34:57.174Z,64.07
2023-04-26T19:50:39.470Z,66.5
2023-04-26T20:06:21.818Z,69.65
2023-04-26T20:22:04.245Z,71.48
2023-04-26T20:37:47.188Z,72.78
2023-04-26T20:53:30.063Z,74.48
2023-04-26T21:09:13.085Z,75.91
2023-04-26T21:24:55.839Z,77.37
2023-04-26T21:40:38.355Z,76.77
2023-04-26T21:56:20.789Z,78.62
2023-04-26T22:12:03.048Z,81.15
2023-04-26T22:27:45.671Z,82.74
2023-04-26T22:43:28.564Z,85.62
2023-04-26T22:59:11.383Z,84.2
2023-04-26T23:14:53.809Z,82.03
2023-04-26T23:30:36.479Z,80.91
2023-04-26T23:46:19.268Z,79.79
